Indian Springs, Nevada Weather observations

Data are for observation ending at time listed.
 Day   Time    Ave.   Ave.  Ave.  Vector   Max.   Stn.    Total    Solar   Ave.  
  of    of     Air    Rel.  Wind   Wind    Wind   Baro.  Precip.   Rad.    Soil  
Year   Day     Temp.  Hum.  Speed  Dir.    Gust   Pres.                    Temp. 
2015   (PST)    F      %     mph   deg.    mph     mb.     in.     W/m2     F   
------------------------------------------------------------------------------
 148    0:40   67.6    25    0.0    66      0.1   903.4    0.00       0    81.4
 148    0:50   67.4    25    0.7   318      2.6   903.3    0.00       0    81.2
 148    1:00   67.0    25    0.2   120      1.4   903.3    0.00       0    81.0
 148    1:10   66.1    25    0.4   163      2.2   903.3    0.00       0    80.8
 148    1:20   66.5    24    0.7   185      2.0   903.3    0.00       0    80.6
 148    1:30   66.3    25    0.0     0      0.0   903.3    0.00       0    80.4
 148    1:40   66.2    25    0.4   204      1.8   903.3    0.00       0    80.2
 148    1:50   65.3    26    0.2   184      1.0   903.3    0.00       0    80.0
 148    2:00   65.1    26    0.1    76      1.0   903.2    0.00       0    79.8
 148    2:10   65.8    25    0.8    41      2.6   903.2    0.00       0    79.7
 148    2:20   65.4    26    1.6    54      2.6   903.2    0.00       0    79.5
 148    2:30   65.1    25    0.3    60      1.9   903.2    0.00       0    79.3
 148    2:40   64.6    26    1.3   315      4.3   903.2    0.00       0    79.1
 148    2:50   63.5    25    2.0   280      4.3   903.3    0.00       0    78.9
 148    3:00   64.1    25    2.1   268      4.1   903.4    0.00       0    78.8
 148    3:10   64.5    25    1.8   228      3.9   903.4    0.00       0    78.6
 148    3:20   65.5    26    2.7   242      4.7   903.5    0.00       0    78.4
 148    3:30   66.0    26    1.2   262      2.9   903.5    0.00       0    78.2
 148    3:40   65.7    27    0.7   278      3.0   903.5    0.00       0    78.1
 148    3:50   62.9    29    1.3    95      3.1   903.5    0.00       0    77.9
 148    4:00   61.3    29    0.1   147      1.0   903.5    0.00       0    77.8
 148    4:10   62.1    29    0.9   216      1.7   903.4    0.00       0    77.6
 148    4:20   63.8    27    1.6   228      2.9   903.4    0.00       0    77.5
 148    4:30   62.8    29    0.5    40      2.4   903.5    0.00       1    77.3
 148    4:40   62.1    30    0.1   148      0.7   903.6    0.00       6    77.1
 148    4:50   62.0    30    0.0   147      0.2   903.6    0.00      14    77.0
 148    5:00   61.4    31    0.2   359      1.3   903.7    0.00      34    76.8
 148    5:10   62.9    30    0.3   274      1.2   903.7    0.00      64    76.7
 148    5:20   64.4    27    1.5   315      2.8   903.9    0.00     103    76.5
 148    5:30   65.1    26    1.0   230      2.0   904.2    0.00     140    76.3
 148    5:40   66.0    26    1.3   220      2.2   904.4    0.00     172    76.1
 148    5:50   68.1    24    1.0   222      1.9   904.7    0.00     206    76.0
 148    6:00   69.6    22    1.8   247      3.1   904.9    0.00     242    75.8
 148    6:10   71.7    23    0.5     7      1.6   905.3    0.00     281    75.7
 148    6:20   73.4    21    0.9   314      2.2   905.7    0.00     313    75.7
 148    6:30   72.5    22    1.1   333      2.4   906.0    0.00     351    75.6
 148    6:40   73.2    21    1.0   329      2.6   906.2    0.00     384    75.6
 148    6:50   75.3    19    0.3    89      1.3   906.5    0.00     411    75.7
 148    7:00   77.1    18    0.8    67      3.4   906.7    0.00     441    75.7
 148    7:10   75.9    19    1.9    84      5.0   906.9    0.00     477    75.8
 148    7:20   75.2    19    3.2    75      8.5   907.1    0.00     523    76.0
 148    7:30   76.0    18    3.2    81      8.5   907.2    0.00     558    76.1
 148    7:40   76.3    18    3.8    74      7.2   907.3    0.00     595    76.3
 148    7:50   76.9    17    3.4    82      7.6   907.4    0.00     624    76.5
 148    8:00   77.8    17    2.9    61      5.5   907.5    0.00     656    76.8
 148    8:10   78.5    16    2.9    64      8.0   907.6    0.00     685    77.0
 148    8:20   79.8    16    2.6    70      6.5   907.6    0.00     710    77.3
 148    8:30   80.4    16    3.0    94      6.4   907.7    0.00     732    77.6
 148    8:40   81.1    15    3.0    77      6.9   907.8    0.00     759    78.0
 148    8:50   81.4    15    3.5    76      7.3   907.8    0.00     787    78.3
 148    9:00   82.3    14    3.3    78      6.3   907.9    0.00     810    78.6
 148    9:10   83.1    14    3.8    86      8.0   907.9    0.00     833    79.0
 148    9:20   83.5    14    4.5    77     10.4   908.0    0.00     859    79.4
 148    9:30   83.6    14    4.7    81     12.1   908.1    0.00     881    79.9
 148    9:40   83.6    14    4.0    52      8.7   908.2    0.00     903    80.3
 148    9:50   85.0    14    2.4    74      5.8   908.2    0.00     906    80.7
 148   10:00   85.3    14    3.4    69      8.9   908.3    0.00     933    81.2
 148   10:10   84.7    14    3.2    67      8.6   908.4    0.00     941    81.7
 148   10:20   85.8    14    3.2    58      9.5   908.4    0.00     966    82.2
 148   10:30   85.9    13    3.8    84      8.8   908.4    0.00     970    82.7
 148   10:40   86.2    13    2.9    39      7.2   908.4    0.00     984    83.2
 148   10:50   86.1    14    3.6    58      7.5   908.3    0.00     979    83.7
 148   11:00   86.6    14    1.9     3      6.0   908.2    0.00     990    84.2
 148   11:10   87.4    14    2.4    21      6.9   908.2    0.00     994    84.8
 148   11:20   88.0    14    1.9   324      7.0   908.2    0.00     994    85.3
 148   11:30   86.7    13    2.0   280      6.1   908.1    0.00    1007    85.8
 148   11:40   86.8    13    3.0   312      5.6   908.0    0.00    1017    86.3
 148   11:50   87.4    13    2.5     3      7.6   908.0    0.00    1004    86.9
 148   12:00   87.1    13    2.5   298      5.7   907.9    0.00    1019    87.4
 148   12:10   87.1    13    3.5   286      7.6   907.7    0.00    1015    87.9
 148   12:20   86.1    13    4.0   268      7.4   907.5    0.00    1007    88.5
 148   12:30   88.1    13    1.8   253      6.9   907.3    0.00     994    88.9
 148   12:40   88.6    13    1.9   214      5.8   907.0    0.00     987    89.4
 148   12:50   89.2    13    4.3    44      8.8   906.9    0.00     589    89.9
 148   13:00   89.0    13    3.0    71      7.9   906.8    0.00     452    90.4
 148   13:10   89.5    12    4.1    89      9.2   906.6    0.00     682    90.9
 148   13:20   89.4    13    3.6    55      7.5   906.5    0.00     154    91.3
 148   13:30   89.9    12    4.4    62     10.7   906.4    0.00     272    91.7
 148   13:40   89.9    12    3.3    52      7.6   906.3    0.00     243    92.1
 148   13:50   91.0    12    3.4    82      8.8   906.2    0.00     201    92.5
 148   14:00   91.2    12    4.5   109     11.3   906.1    0.00     863    92.8
 148   14:10   90.1    12    3.1   160      9.8   906.1    0.00     781    93.1
 148   14:20   90.2    12    3.5    67      9.3   906.0    0.00     590    93.3
 148   14:30   90.8    12    2.6   159      6.3   905.9    0.00     514    93.5
 148   14:40   89.2    12    2.6   126      9.5   905.8    0.00     180    93.7
 148   14:50   88.5    13    3.6   102      9.9   905.6    0.00     139    93.9
 148   15:00   88.2    13    3.1    99      9.2   905.3    0.00     158    94.1
 148   15:10   88.6    13    3.6    98     10.4   905.2    0.00     417    94.2
 148   15:20   89.0    13    2.8   101      7.3   905.0    0.00     207    94.2
 148   15:30   89.2    13    2.0   133      7.1   905.0    0.00     199    94.2
 148   15:40   89.2    13    2.9   104      9.3   904.9    0.00     187    94.1
 148   15:50   88.4    13    3.9   105      9.6   904.7    0.00     151    94.0
 148   16:00   88.2    13    3.8   102     10.7   904.6    0.00     139    93.9
 148   16:10   87.9    13    3.9    93      8.6   904.5    0.00     144    93.7
 148   16:20   88.3    13    3.5    82      6.9   904.4    0.00     222    93.6
 148   16:30   88.6    13    3.8    92      7.1   904.4    0.00     131    93.4
 148   16:40   88.0    13    3.3   120      7.7   904.3    0.00     101    93.3
 148   16:50   88.2    13    1.9   162      5.8   904.2    0.00     110    93.1
 148   17:00   87.7    13    4.0    99      8.8   904.2    0.00     100    92.9
 148   17:10   87.6    13    3.5    98     10.2   904.1    0.00      96    92.7
 148   17:20   88.0    13    1.6   155      4.2   904.1    0.00      94    92.5
 148   17:30   88.1    12    4.9   245     13.9   904.2    0.00      92    92.3
 148   17:40   88.2    11    4.2   244      9.1   904.4    0.00      83    92.1
 148   17:50   88.0    11    4.8   239      9.1   904.4    0.00      73    91.9
 148   18:00   87.9    11    2.8   236      5.3   904.4    0.00      64    91.7
 148   18:10   87.8    11    3.5   238      8.0   904.4    0.00      50    91.5
 148   18:20   87.5    11    3.7   226      6.9   904.3    0.00      40    91.3
 148   18:30   87.3    11    3.0   232      5.9   904.3    0.00      31    91.1
 148   18:40   86.8    11    3.3   245      7.5   904.3    0.00      17    90.9
 148   18:50   86.3    12    4.6   242      7.9   904.3    0.00       6    90.7
 148   19:00   85.9    12    4.5   233      8.1   904.3    0.00       0    90.5
 148   19:10   85.4    12    3.4   231      5.4   904.3    0.00       0    90.2
 148   19:20   85.2    12    4.5   227      8.7   904.4    0.00       0    90.1
 148   19:30   84.8    12    4.0   225      6.9   904.4    0.00       0    89.8
 148   19:40   84.5    13    3.1   216      6.4   904.3    0.00       0    89.6
 148   19:50   84.0    13    2.3   215      4.1   904.4    0.00       0    89.4
 148   20:00   83.6    13    2.5   208      5.3   904.4    0.00       0    89.2
 148   20:10   83.7    13    1.7   213      3.9   904.4    0.00       0    89.0
 148   20:20   82.5    14    1.2    37      3.7   904.5    0.00       0    88.7
 148   20:30   80.8    14    0.7    29      2.6   904.5    0.00       0    88.5
 148   20:40   80.6    14    0.6    29      2.8   904.5    0.00       0    88.3
 148   20:50   80.5    14    1.1    21      3.3   904.5    0.00       0    88.1
 148   21:00   79.9    15    1.3    34      2.6   904.5    0.00       0    87.9
 148   21:10   78.9    16    0.4   115      1.5   904.5    0.00       0    87.7
 148   21:20   78.3    17    0.1     7      1.0   904.5    0.00       0    87.4
 148   21:30   77.7    17    1.1   102      2.9   904.4    0.00       0    87.2
 148   21:40   77.3    18    0.1   135      1.2   904.4    0.00       0    87.0
 148   21:50   76.8    18    0.4   176      1.4   904.4    0.00       0    86.8
 148   22:00   75.9    19    0.4   244      1.8   904.3    0.00       0    86.6
 148   22:10   76.4    17    0.4   232      1.6   904.2    0.00       0    86.4
 148   22:20   76.3    18    0.4   244      1.7   904.1    0.00       0    86.2
 148   22:30   76.5    16    1.6   239      2.6   904.0    0.00       0    86.0
 148   22:40   75.8    16    1.7   241      2.8   904.0    0.00       0    85.8
 148   22:50   75.3    16    1.7   240      2.9   904.1    0.00       0    85.6
 148   23:00   74.6    17    1.2   231      2.1   904.0    0.00       0    85.4
 148   23:10   73.7    17    0.9   226      1.9   903.9    0.00       0    85.2
 148   23:20   73.1    20    0.3   208      1.0   903.9    0.00       0    85.0
 148   23:30   73.1    20    0.4   200      1.4   903.8    0.00       0    84.8
 148   23:40   73.3    20    0.0   200      0.4   903.7    0.00       0    84.6
 148   23:50   73.6    20    0.1   200      0.5   903.6    0.00       0    84.4
 149    0:00   73.1    21    0.0     0      0.0   903.6    0.00       0    84.2
 149    0:10   71.8    21    0.6    38      1.9   903.6    0.00       0    84.1
 149    0:20   70.6    21    0.3   265      2.0   903.6    0.00       0    83.9
 149    0:30   69.9    22    0.1   148      0.7   903.5    0.00       0    83.7

Return to Indian Springs, Nevada graphs page.


Western Regional Climate Center,wrcc@dri.edu